createdAt,value
2018-07-23T00:01:50.937Z,21.53
2018-07-23T00:03:55.665Z,21.56
2018-07-23T00:06:00.572Z,21.49
2018-07-23T00:08:05.833Z,21.51
2018-07-23T00:10:10.600Z,21.51
2018-07-23T00:12:15.348Z,21.42
2018-07-23T00:14:20.214Z,21.40
2018-07-23T00:16:24.954Z,21.41
2018-07-23T00:18:29.722Z,21.48
2018-07-23T00:20:34.487Z,21.45
2018-07-23T00:22:39.312Z,21.55
2018-07-23T00:24:44.087Z,21.63
2018-07-23T00:26:48.941Z,21.67
2018-07-23T00:28:53.704Z,21.50
2018-07-23T00:30:58.403Z,21.38
2018-07-23T00:33:03.153Z,21.34
2018-07-23T00:35:07.934Z,21.24
2018-07-23T00:37:12.649Z,21.31
2018-07-23T00:39:17.490Z,21.26
2018-07-23T00:41:22.178Z,21.15
2018-07-23T00:43:26.946Z,21.05
2018-07-23T00:45:31.770Z,21.07
2018-07-23T00:47:36.486Z,21.10
2018-07-23T00:49:41.319Z,21.06
2018-07-23T00:51:46.134Z,21.16
2018-07-23T00:53:50.809Z,21.08
2018-07-23T00:55:55.503Z,20.94
2018-07-23T00:58:00.229Z,20.89
2018-07-23T01:00:05.490Z,20.83
2018-07-23T01:02:10.205Z,20.88
2018-07-23T01:04:14.927Z,20.79
2018-07-23T01:06:19.749Z,20.88
2018-07-23T01:08:24.521Z,20.90
2018-07-23T01:10:29.309Z,20.73
2018-07-23T01:12:35.063Z,20.88
2018-07-23T01:14:39.882Z,20.82
2018-07-23T01:16:44.752Z,20.65
2018-07-23T01:18:49.507Z,20.79
2018-07-23T01:20:54.252Z,20.80
2018-07-23T01:22:58.966Z,20.69
2018-07-23T01:25:03.789Z,20.68
2018-07-23T01:27:08.692Z,20.55
2018-07-23T01:29:13.125Z,20.40
2018-07-23T01:31:18.347Z,20.36
2018-07-23T01:33:22.707Z,20.31
2018-07-23T01:35:27.430Z,20.40
2018-07-23T01:37:32.230Z,20.39
2018-07-23T01:39:36.969Z,20.36
2018-07-23T01:41:41.658Z,20.28
2018-07-23T01:43:46.373Z,20.09
2018-07-23T01:45:51.077Z,20.19
2018-07-23T01:47:55.972Z,20.09
2018-07-23T01:50:00.927Z,20.08
2018-07-23T01:52:06.127Z,20.06
2018-07-23T01:54:11.027Z,20.06
2018-07-23T01:56:15.815Z,20.10
2018-07-23T01:58:20.573Z,20.05
2018-07-23T02:00:25.842Z,20.01
2018-07-23T02:02:30.565Z,20.00
2018-07-23T02:04:38.509Z,19.89
2018-07-23T02:06:43.563Z,19.92
2018-07-23T02:08:48.364Z,20.01
2018-07-23T02:10:53.112Z,19.97
2018-07-23T02:12:57.896Z,20.16
2018-07-23T02:15:02.651Z,20.11
2018-07-23T02:17:07.511Z,19.99
2018-07-23T02:19:12.248Z,19.91
2018-07-23T02:21:16.974Z,19.76
2018-07-23T02:23:21.700Z,19.89
2018-07-23T02:25:26.505Z,19.93
2018-07-23T02:27:31.321Z,20.08
2018-07-23T02:29:36.063Z,20.01
2018-07-23T02:31:40.815Z,19.98
2018-07-23T02:33:45.562Z,19.81
2018-07-23T02:35:50.242Z,19.80
2018-07-23T02:37:54.945Z,19.71
2018-07-23T02:39:59.681Z,19.65
2018-07-23T02:42:04.471Z,19.67
2018-07-23T02:44:09.319Z,19.66
2018-07-23T02:46:14.040Z,19.67
2018-07-23T02:48:18.781Z,19.65
2018-07-23T02:50:23.537Z,19.61
2018-07-23T02:52:28.370Z,19.61
2018-07-23T02:54:33.089Z,19.55
2018-07-23T02:56:37.808Z,19.57
2018-07-23T02:58:42.613Z,19.56
2018-07-23T03:00:47.393Z,19.53
2018-07-23T03:02:52.157Z,19.49
2018-07-23T03:04:56.521Z,19.51
2018-07-23T03:07:01.531Z,19.52
2018-07-23T03:09:08.844Z,19.52
2018-07-23T03:11:13.629Z,19.53
2018-07-23T03:13:18.382Z,19.53
2018-07-23T03:15:23.265Z,19.54
2018-07-23T03:17:27.965Z,19.57
2018-07-23T03:19:32.688Z,19.59
2018-07-23T03:21:37.557Z,19.57
2018-07-23T03:23:42.365Z,19.59
2018-07-23T03:25:47.063Z,19.31
2018-07-23T03:27:51.818Z,19.59
2018-07-23T03:29:56.537Z,19.61
2018-07-23T03:32:01.237Z,19.55
2018-07-23T03:34:06.066Z,19.64
2018-07-23T03:36:10.795Z,19.63
2018-07-23T03:38:15.569Z,19.56
2018-07-23T03:40:20.375Z,19.61
2018-07-23T03:42:25.143Z,19.62
2018-07-23T03:44:29.833Z,19.59
2018-07-23T03:46:34.670Z,19.59
2018-07-23T03:48:39.410Z,19.60
2018-07-23T03:50:44.227Z,19.58
2018-07-23T03:52:48.949Z,19.64
2018-07-23T03:54:53.671Z,19.59
2018-07-23T03:56:58.501Z,19.57
2018-07-23T03:59:03.975Z,19.56
2018-07-23T04:01:09.039Z,19.55
2018-07-23T04:03:13.897Z,19.54
2018-07-23T04:05:18.600Z,19.51
2018-07-23T04:07:23.470Z,19.53
2018-07-23T04:09:28.242Z,19.55
2018-07-23T04:11:32.993Z,19.51
2018-07-23T04:13:37.487Z,19.50
2018-07-23T04:15:42.268Z,19.53
2018-07-23T04:17:51.666Z,19.56
2018-07-23T04:19:56.444Z,19.66
2018-07-23T04:22:07.768Z,19.71
2018-07-23T04:24:12.549Z,19.75
2018-07-23T04:26:20.343Z,19.75
2018-07-23T04:28:25.140Z,19.77
2018-07-23T04:30:30.021Z,19.83
2018-07-23T04:32:34.978Z,19.71
2018-07-23T04:34:39.789Z,19.93
2018-07-23T04:36:44.611Z,19.96
2018-07-23T04:38:49.970Z,20.00
2018-07-23T04:41:01.897Z,20.03
2018-07-23T04:43:07.128Z,20.08
2018-07-23T04:45:12.077Z,20.14
2018-07-23T04:47:16.934Z,20.19
2018-07-23T04:49:21.837Z,20.24
2018-07-23T04:51:26.942Z,20.25
2018-07-23T04:53:32.365Z,20.33
2018-07-23T04:55:37.386Z,20.38
2018-07-23T04:57:42.157Z,20.42
2018-07-23T04:59:47.008Z,20.47
2018-07-23T05:01:51.939Z,20.54
2018-07-23T05:03:56.998Z,20.61
2018-07-23T05:06:02.317Z,20.67
2018-07-23T05:08:07.395Z,20.73
2018-07-23T05:10:12.600Z,20.77
2018-07-23T05:12:17.966Z,20.85
2018-07-23T05:14:22.826Z,20.90
2018-07-23T05:16:27.672Z,20.96
2018-07-23T05:18:32.733Z,20.98
2018-07-23T05:20:37.548Z,21.07
2018-07-23T05:22:42.749Z,21.10
2018-07-23T05:24:48.762Z,21.18
2018-07-23T05:26:53.605Z,21.19
2018-07-23T05:28:58.681Z,21.22
2018-07-23T05:31:03.872Z,21.15
2018-07-23T05:33:09.057Z,21.29
2018-07-23T05:35:13.641Z,21.27
2018-07-23T05:37:18.520Z,21.28
2018-07-23T05:39:23.518Z,21.32
2018-07-23T05:41:28.483Z,21.28
2018-07-23T05:43:33.516Z,21.29
2018-07-23T05:45:38.527Z,21.34
2018-07-23T05:47:43.302Z,21.32
2018-07-23T05:49:48.361Z,21.31
2018-07-23T05:51:53.441Z,21.27
2018-07-23T05:53:58.254Z,21.25
2018-07-23T05:56:03.159Z,21.29
2018-07-23T05:58:08.155Z,21.31
2018-07-23T06:00:13.086Z,21.31
2018-07-23T06:02:21.461Z,21.35
2018-07-23T06:04:26.210Z,21.38
2018-07-23T06:06:30.658Z,21.49
2018-07-23T06:08:35.606Z,21.48
2018-07-23T06:10:40.571Z,21.45
2018-07-23T06:12:45.395Z,21.51
2018-07-23T06:15:53.470Z,21.49
2018-07-23T06:17:58.231Z,21.50
2018-07-23T06:20:02.989Z,21.51
2018-07-23T06:22:07.907Z,21.49
2018-07-23T06:24:12.754Z,21.40
2018-07-23T06:26:17.680Z,21.44
2018-07-23T06:28:22.730Z,21.43
2018-07-23T06:30:27.663Z,21.45
2018-07-23T06:32:32.682Z,21.48
2018-07-23T06:34:37.768Z,21.50
2018-07-23T06:36:42.529Z,21.59
2018-07-23T06:38:47.251Z,21.60
2018-07-23T06:40:52.135Z,21.66
2018-07-23T06:42:56.989Z,21.64
2018-07-23T06:45:01.965Z,21.69
2018-07-23T06:47:06.848Z,21.69
2018-07-23T06:49:11.687Z,21.70
2018-07-23T06:51:16.505Z,22.07
2018-07-23T06:53:21.270Z,22.01
2018-07-23T06:55:26.193Z,22.01
2018-07-23T06:57:31.068Z,22.03
2018-07-23T06:59:36.339Z,22.09
2018-07-23T07:01:41.181Z,22.13
2018-07-23T07:03:46.042Z,22.19
2018-07-23T07:05:50.784Z,22.26
2018-07-23T07:07:55.494Z,22.29
2018-07-23T07:10:02.373Z,22.36
2018-07-23T07:12:07.523Z,22.44
2018-07-23T07:14:12.356Z,22.62
2018-07-23T07:16:17.130Z,22.71
2018-07-23T07:18:21.877Z,22.89
2018-07-23T07:20:26.736Z,23.10
2018-07-23T07:22:31.567Z,23.21
2018-07-23T07:24:36.396Z,23.44
2018-07-23T07:26:41.452Z,23.25
2018-07-23T07:28:46.621Z,23.16
2018-07-23T07:30:51.418Z,23.07
2018-07-23T07:32:56.143Z,23.30
2018-07-23T07:35:00.934Z,23.34
2018-07-23T07:37:06.053Z,23.51
2018-07-23T07:39:12.689Z,23.76
2018-07-23T07:41:17.652Z,23.96
2018-07-23T07:43:22.466Z,24.10
2018-07-23T07:45:27.230Z,24.22
2018-07-23T07:47:32.230Z,24.33
2018-07-23T07:49:36.978Z,24.43
2018-07-23T07:51:41.784Z,24.62
2018-07-23T07:53:46.617Z,24.72
2018-07-23T07:55:51.392Z,24.54
2018-07-23T07:57:56.718Z,24.61
2018-07-23T08:00:01.622Z,24.51
2018-07-23T08:02:06.555Z,24.72
2018-07-23T08:04:11.288Z,24.96
2018-07-23T08:06:16.022Z,25.02
2018-07-23T08:08:20.825Z,25.01
2018-07-23T08:10:25.799Z,25.15
2018-07-23T08:12:30.879Z,25.00
2018-07-23T08:14:35.520Z,24.74
2018-07-23T08:16:40.400Z,24.71
2018-07-23T08:18:45.318Z,25.09
2018-07-23T08:20:56.321Z,24.87
2018-07-23T08:23:12.828Z,24.76
2018-07-23T08:25:20.103Z,24.47
2018-07-23T08:27:25.968Z,24.21
2018-07-23T08:29:32.913Z,24.42
2018-07-23T08:31:39.571Z,24.46
2018-07-23T08:33:44.469Z,24.72
2018-07-23T08:35:51.238Z,24.93
2018-07-23T08:37:56.149Z,24.88
2018-07-23T08:40:01.100Z,24.96
2018-07-23T08:42:06.041Z,25.24
2018-07-23T08:44:11.580Z,25.40
2018-07-23T08:46:16.706Z,25.07
2018-07-23T08:48:21.408Z,24.88
2018-07-23T08:50:26.865Z,24.82
2018-07-23T08:52:31.747Z,24.84
2018-07-23T08:54:36.661Z,25.01
2018-07-23T08:56:41.402Z,25.13
2018-07-23T08:58:46.202Z,25.44
2018-07-23T09:00:50.910Z,24.88
2018-07-23T09:02:55.676Z,24.80
2018-07-23T09:05:00.437Z,24.97
2018-07-23T09:07:05.156Z,25.06
2018-07-23T09:09:11.527Z,25.01
2018-07-23T09:11:16.453Z,24.94
2018-07-23T09:13:21.418Z,25.23
2018-07-23T09:15:26.228Z,25.38
2018-07-23T09:17:30.913Z,25.49
2018-07-23T09:19:35.972Z,25.41
2018-07-23T09:21:40.693Z,25.53
2018-07-23T09:23:45.444Z,25.62
2018-07-23T09:25:52.472Z,25.45
2018-07-23T09:27:57.253Z,25.66
2018-07-23T09:30:02.372Z,25.71
2018-07-23T09:32:07.505Z,25.63
2018-07-23T09:34:12.305Z,25.63
2018-07-23T09:36:17.131Z,25.59
2018-07-23T09:38:23.234Z,25.37
2018-07-23T09:40:28.137Z,25.64
2018-07-23T09:42:32.842Z,25.82
2018-07-23T09:44:37.523Z,25.59
2018-07-23T09:46:42.359Z,25.56
2018-07-23T09:48:47.237Z,25.74
2018-07-23T09:50:52.214Z,25.97
2018-07-23T09:52:57.188Z,25.89
2018-07-23T09:55:02.015Z,26.03
2018-07-23T09:57:07.105Z,26.36
2018-07-23T09:59:12.045Z,26.39
2018-07-23T10:01:19.666Z,26.14
2018-07-23T10:03:24.508Z,26.44
2018-07-23T10:05:29.425Z,26.49
2018-07-23T10:07:34.152Z,26.76
2018-07-23T10:09:38.874Z,26.52
2018-07-23T10:11:43.907Z,26.51
2018-07-23T10:13:48.680Z,26.54
2018-07-23T10:15:53.447Z,26.62
2018-07-23T10:17:59.145Z,26.28
2018-07-23T10:20:04.362Z,26.15
2018-07-23T10:22:10.034Z,25.96
2018-07-23T10:24:14.298Z,26.43
2018-07-23T10:26:19.363Z,26.31
2018-07-23T10:28:24.439Z,26.61
2018-07-23T10:30:29.740Z,26.71
2018-07-23T10:32:35.045Z,26.92
2018-07-23T10:34:39.948Z,27.26
2018-07-23T10:36:44.821Z,27.29
2018-07-23T10:38:49.590Z,27.09
2018-07-23T10:40:54.390Z,26.49
2018-07-23T10:42:59.090Z,27.15
2018-07-23T10:45:04.938Z,26.54
2018-07-23T10:47:11.466Z,26.22
2018-07-23T10:49:16.431Z,26.37
2018-07-23T10:51:21.217Z,26.38
2018-07-23T10:53:26.086Z,26.46
2018-07-23T10:55:30.900Z,26.58
2018-07-23T10:57:35.804Z,26.57
2018-07-23T10:59:40.686Z,27.06
2018-07-23T11:01:45.560Z,27.21
2018-07-23T11:03:50.521Z,26.74
2018-07-23T11:05:55.427Z,26.59
2018-07-23T11:08:00.356Z,26.39
2018-07-23T11:10:05.642Z,26.45
2018-07-23T11:12:10.440Z,26.10
2018-07-23T11:14:15.343Z,26.36
2018-07-23T11:16:20.092Z,26.31
2018-07-23T11:18:24.895Z,26.27
2018-07-23T11:20:29.688Z,25.94
2018-07-23T11:22:34.674Z,26.25
2018-07-23T11:24:45.389Z,26.24
2018-07-23T11:26:45.271Z,26.16
2018-07-23T11:28:50.103Z,26.09
2018-07-23T11:30:55.495Z,26.02
2018-07-23T11:33:00.425Z,25.87
2018-07-23T11:35:05.539Z,25.92
2018-07-23T11:37:10.531Z,26.09
2018-07-23T11:39:15.341Z,26.07
2018-07-23T11:41:20.236Z,26.33
2018-07-23T11:43:25.042Z,26.43
2018-07-23T11:45:30.735Z,26.49
2018-07-23T11:47:35.612Z,26.36
2018-07-23T11:49:40.462Z,26.40
2018-07-23T11:51:45.260Z,26.74
2018-07-23T11:53:49.742Z,26.78
2018-07-23T11:55:54.688Z,27.14
2018-07-23T11:57:59.456Z,27.02
2018-07-23T12:00:04.485Z,26.90
2018-07-23T12:02:09.986Z,26.79
2018-07-23T12:04:14.870Z,27.08
2018-07-23T12:06:19.600Z,26.89
2018-07-23T12:08:24.379Z,26.72
2018-07-23T12:10:29.115Z,27.02
2018-07-23T12:12:34.829Z,26.99
2018-07-23T12:14:41.913Z,27.06
2018-07-23T12:16:46.785Z,27.11
2018-07-23T12:18:52.321Z,27.12
2018-07-23T12:20:57.281Z,27.28
2018-07-23T12:23:02.027Z,27.25
2018-07-23T12:25:07.334Z,27.28
2018-07-23T12:27:12.431Z,27.31
2018-07-23T12:29:17.198Z,27.61
2018-07-23T12:31:22.068Z,27.65
2018-07-23T12:33:27.024Z,27.81
2018-07-23T12:35:33.299Z,27.51
2018-07-23T12:37:38.393Z,27.44
2018-07-23T12:39:43.278Z,27.43
2018-07-23T12:41:47.968Z,27.15
2018-07-23T12:43:52.820Z,27.50
2018-07-23T12:45:57.744Z,27.40
2018-07-23T12:48:05.642Z,27.53
2018-07-23T12:50:10.649Z,27.71
2018-07-23T12:52:15.391Z,27.69
2018-07-23T12:54:20.276Z,27.65
2018-07-23T12:56:25.162Z,27.68
2018-07-23T12:58:29.980Z,27.71
2018-07-23T13:00:34.703Z,27.63
2018-07-23T13:02:40.776Z,27.55
2018-07-23T13:04:45.524Z,27.71
2018-07-23T13:06:50.316Z,27.76
2018-07-23T13:08:55.101Z,28.02
2018-07-23T13:10:59.796Z,27.85
2018-07-23T13:13:04.659Z,28.13
2018-07-23T13:15:09.429Z,28.26
2018-07-23T13:17:15.151Z,27.92
2018-07-23T13:19:20.094Z,27.93
2018-07-23T13:21:25.056Z,28.05
2018-07-23T13:23:29.826Z,28.17
2018-07-23T13:25:34.684Z,28.36
2018-07-23T13:27:39.505Z,28.27
2018-07-23T13:29:44.362Z,27.85
2018-07-23T13:31:49.563Z,28.34
2018-07-23T13:33:54.514Z,28.24
2018-07-23T13:35:59.407Z,28.32
2018-07-23T13:38:04.398Z,28.31
2018-07-23T13:40:10.741Z,28.56
2018-07-23T13:42:18.575Z,28.27
2018-07-23T13:44:23.333Z,28.42
2018-07-23T13:46:28.283Z,28.42
2018-07-23T13:48:32.965Z,28.78
2018-07-23T13:50:37.828Z,28.57
2018-07-23T13:52:42.974Z,28.62
2018-07-23T13:54:47.793Z,28.86
2018-07-23T13:56:52.500Z,28.85
2018-07-23T13:58:57.683Z,28.99
2018-07-23T14:01:03.347Z,28.78
2018-07-23T14:03:08.414Z,28.60
2018-07-23T14:05:13.311Z,28.78
2018-07-23T14:07:18.310Z,29.00
2018-07-23T14:09:23.385Z,28.83
2018-07-23T14:11:28.390Z,29.29
2018-07-23T14:13:33.551Z,29.61
2018-07-23T14:15:38.623Z,29.45
2018-07-23T14:17:43.437Z,29.47
2018-07-23T14:19:48.445Z,29.35
2018-07-23T14:21:53.220Z,29.24
2018-07-23T14:23:58.562Z,29.10
2018-07-23T14:26:03.290Z,29.19
2018-07-23T14:28:08.093Z,29.54
2018-07-23T14:30:12.900Z,29.40
2018-07-23T14:32:17.658Z,29.24
2018-07-23T14:34:22.521Z,29.41
2018-07-23T14:36:27.408Z,29.24
2018-07-23T14:38:32.194Z,29.61
2018-07-23T14:40:36.975Z,29.77
2018-07-23T14:42:41.869Z,29.61
2018-07-23T14:44:46.895Z,29.36
2018-07-23T14:46:51.818Z,29.51
2018-07-23T14:48:56.834Z,29.52
2018-07-23T14:51:01.822Z,29.83
2018-07-23T14:53:06.619Z,29.64
2018-07-23T14:55:11.503Z,29.64
2018-07-23T14:57:16.861Z,29.64
2018-07-23T14:59:21.655Z,29.89
2018-07-23T15:01:26.677Z,29.95
2018-07-23T15:03:34.051Z,30.14
2018-07-23T15:05:38.844Z,30.13
2018-07-23T15:07:43.780Z,30.16
2018-07-23T15:09:48.659Z,30.11
2018-07-23T15:11:53.402Z,30.47
2018-07-23T15:14:00.447Z,30.06
2018-07-23T15:16:05.372Z,29.74
2018-07-23T15:18:11.250Z,30.12
2018-07-23T15:20:16.410Z,29.84
2018-07-23T15:22:21.674Z,30.03
2018-07-23T15:24:32.069Z,30.12
2018-07-23T15:26:47.810Z,30.30
2018-07-23T15:28:54.623Z,29.90
2018-07-23T15:30:59.592Z,30.06
2018-07-23T15:33:04.416Z,29.98
2018-07-23T15:35:09.412Z,29.83
2018-07-23T15:37:16.211Z,29.90
2018-07-23T15:39:21.265Z,30.23
2018-07-23T15:41:26.097Z,29.88
2018-07-23T15:43:31.111Z,29.75
2018-07-23T15:45:37.441Z,30.24
2018-07-23T15:47:43.079Z,30.16
2018-07-23T15:49:47.836Z,30.31
2018-07-23T15:54:15.497Z,30.54
2018-07-23T15:56:28.759Z,30.72
2018-07-23T15:58:34.443Z,30.77
2018-07-23T16:00:39.323Z,30.48
2018-07-23T16:02:44.063Z,30.32
2018-07-23T16:04:48.961Z,30.38
2018-07-23T16:06:53.767Z,30.49
2018-07-23T16:08:58.760Z,30.10
2018-07-23T16:11:03.924Z,30.47
2018-07-23T16:13:08.638Z,30.66
2018-07-23T16:15:14.253Z,30.39
2018-07-23T16:17:18.968Z,30.52
2018-07-23T16:19:23.693Z,30.54
2018-07-23T16:21:28.417Z,30.30
2018-07-23T16:23:33.182Z,30.56
2018-07-23T16:25:37.533Z,30.75
2018-07-23T16:27:42.166Z,30.55
2018-07-23T16:29:46.939Z,30.94
2018-07-23T16:31:51.658Z,30.60
2018-07-23T16:33:56.602Z,30.83
2018-07-23T16:36:01.481Z,31.03
2018-07-23T16:38:06.503Z,31.12
2018-07-23T16:40:11.486Z,31.24
2018-07-23T16:42:16.492Z,31.42
2018-07-23T16:44:21.307Z,31.46
2018-07-23T16:46:26.159Z,31.68
2018-07-23T16:48:30.893Z,31.64
2018-07-23T16:50:35.654Z,31.70
2018-07-23T16:52:40.518Z,31.39
2018-07-23T16:54:45.452Z,31.48
2018-07-23T16:56:50.422Z,31.73
2018-07-23T16:58:55.404Z,32.23
2018-07-23T17:01:00.191Z,32.31
2018-07-23T17:03:05.039Z,32.23
2018-07-23T17:05:09.830Z,31.80
2018-07-23T17:07:14.632Z,32.09
2018-07-23T17:09:19.269Z,32.00
2018-07-23T17:11:24.013Z,32.44
2018-07-23T17:13:28.794Z,32.61
2018-07-23T17:15:33.658Z,32.59
2018-07-23T17:17:39.273Z,32.58
2018-07-23T17:19:44.286Z,32.69
2018-07-23T17:21:50.465Z,32.56
2018-07-23T17:23:55.273Z,32.49
2018-07-23T17:26:00.203Z,32.94
2018-07-23T17:28:05.013Z,32.82
2018-07-23T17:30:09.965Z,33.10
2018-07-23T17:32:15.199Z,32.77
2018-07-23T17:34:19.983Z,32.54
2018-07-23T17:36:25.491Z,32.35
2018-07-23T17:38:30.986Z,32.21
2018-07-23T17:40:35.815Z,32.12
2018-07-23T17:42:43.211Z,32.15
2018-07-23T17:44:48.623Z,32.27
2018-07-23T17:46:54.029Z,32.24
2018-07-23T17:48:59.191Z,32.32
2018-07-23T17:51:04.435Z,32.24
2018-07-23T17:53:09.273Z,32.19
2018-07-23T17:55:14.287Z,32.23
2018-07-23T17:57:19.518Z,32.20
2018-07-23T17:59:24.507Z,32.12
2018-07-23T18:01:33.292Z,31.93
2018-07-23T18:03:38.395Z,31.77
2018-07-23T18:05:44.974Z,31.72
2018-07-23T18:07:53.017Z,31.35
2018-07-23T18:09:58.423Z,31.15
2018-07-23T18:12:03.560Z,31.00
2018-07-23T18:14:08.962Z,30.84
2018-07-23T18:16:14.059Z,30.68
2018-07-23T18:18:18.500Z,30.57
2018-07-23T18:20:23.479Z,30.29
2018-07-23T18:22:28.621Z,30.24
2018-07-23T18:24:34.259Z,29.95
2018-07-23T18:26:38.986Z,29.79
2018-07-23T18:28:44.494Z,29.69
2018-07-23T18:30:49.721Z,29.51
2018-07-23T18:32:55.395Z,29.41
2018-07-23T18:35:02.217Z,29.37
2018-07-23T18:37:07.732Z,29.30
2018-07-23T18:39:13.713Z,29.22
2018-07-23T18:41:19.105Z,29.17
2018-07-23T18:43:26.711Z,29.11
2018-07-23T18:45:37.344Z,29.04
2018-07-23T18:47:43.860Z,29.03
2018-07-23T18:49:59.893Z,28.85
2018-07-23T18:52:06.540Z,28.81
2018-07-23T18:54:12.667Z,28.75
2018-07-23T18:56:18.359Z,28.73
2018-07-23T18:58:24.603Z,28.55
2018-07-23T19:00:33.312Z,28.53
2018-07-23T19:02:41.280Z,28.48
2018-07-23T19:04:47.114Z,28.41
2018-07-23T19:06:53.117Z,28.36
2018-07-23T19:08:58.666Z,28.30
2018-07-23T19:11:04.511Z,28.23
2018-07-23T19:13:09.458Z,28.19
2018-07-23T19:15:14.168Z,28.12
2018-07-23T19:17:19.082Z,28.06
2018-07-23T19:19:24.113Z,27.99
2018-07-23T19:21:29.502Z,27.93
2018-07-23T19:23:34.674Z,27.84
2018-07-23T19:25:39.658Z,27.76
2018-07-23T19:27:45.263Z,27.68
2018-07-23T19:29:50.604Z,27.59
2018-07-23T19:31:55.733Z,27.52
2018-07-23T19:34:01.623Z,27.44
2018-07-23T19:36:08.117Z,27.39
2018-07-23T19:38:16.056Z,27.34
2018-07-23T19:40:21.346Z,27.17
2018-07-23T19:42:28.304Z,27.23
2018-07-23T19:44:33.215Z,27.17
2018-07-23T19:46:38.442Z,27.11
2018-07-23T19:48:44.537Z,27.07
2018-07-23T19:50:52.823Z,27.01
2018-07-23T19:52:58.412Z,26.93
2018-07-23T19:55:05.123Z,26.87
2018-07-23T19:57:11.929Z,26.79
2018-07-23T19:59:17.097Z,26.71
2018-07-23T20:01:26.436Z,26.67
2018-07-23T20:03:31.765Z,26.62
2018-07-23T20:05:38.169Z,26.57
2018-07-23T20:07:43.743Z,26.56
2018-07-23T20:09:50.108Z,26.50
2018-07-23T20:11:55.896Z,26.32
2018-07-23T20:14:04.575Z,26.37
2018-07-23T20:16:16.872Z,26.30
2018-07-23T20:18:22.932Z,26.23
2018-07-23T20:20:27.977Z,26.18
2018-07-23T20:22:32.800Z,26.15
2018-07-23T20:24:37.661Z,26.12
2018-07-23T20:26:42.804Z,25.99
2018-07-23T20:28:55.036Z,26.03
2018-07-23T20:30:59.953Z,25.99
2018-07-23T20:33:05.023Z,25.95
2018-07-23T20:35:11.092Z,25.93
2018-07-23T20:37:16.181Z,25.90
2018-07-23T20:39:20.891Z,25.88
2018-07-23T20:41:25.931Z,25.87
2018-07-23T20:43:31.857Z,25.81
2018-07-23T20:45:36.908Z,25.76
2018-07-23T20:47:43.679Z,25.73
2018-07-23T20:49:49.095Z,25.68
2018-07-23T20:51:54.045Z,25.64
2018-07-23T20:53:59.040Z,25.59
2018-07-23T20:56:04.186Z,25.55
2018-07-23T20:58:09.435Z,25.52
2018-07-23T21:00:14.277Z,25.48
2018-07-23T21:02:19.168Z,25.46
2018-07-23T21:04:24.001Z,25.41
2018-07-23T21:06:29.639Z,25.36
2018-07-23T21:08:34.555Z,25.31
2018-07-23T21:10:39.494Z,25.29
2018-07-23T21:12:44.744Z,25.26
2018-07-23T21:14:49.741Z,25.20
2018-07-23T21:16:54.770Z,25.17
2018-07-23T21:19:00.725Z,25.12
2018-07-23T21:21:05.518Z,25.06
2018-07-23T21:23:10.362Z,25.00
2018-07-23T21:25:15.255Z,24.90
2018-07-23T21:27:20.031Z,24.87
2018-07-23T21:29:25.212Z,24.85
2018-07-23T21:31:30.410Z,24.83
2018-07-23T21:33:35.194Z,24.79
2018-07-23T21:35:40.233Z,24.78
2018-07-23T21:37:46.762Z,24.75
2018-07-23T21:39:51.640Z,24.70
2018-07-23T21:41:56.942Z,24.66
2018-07-23T21:44:02.194Z,24.60
2018-07-23T21:46:07.058Z,24.56
2018-07-23T21:48:12.305Z,24.51
2018-07-23T21:50:17.216Z,24.49
2018-07-23T21:52:22.595Z,24.47
2018-07-23T21:54:27.439Z,24.43
2018-07-23T21:56:32.214Z,24.40
2018-07-23T21:58:36.905Z,24.41
2018-07-23T22:00:41.845Z,24.39
2018-07-23T22:02:56.826Z,24.38
2018-07-23T22:05:02.474Z,24.35
2018-07-23T22:07:07.611Z,24.30
2018-07-23T22:09:13.650Z,24.24
2018-07-23T22:11:22.053Z,24.21
2018-07-23T22:13:27.046Z,24.16
2018-07-23T22:15:32.417Z,24.15
2018-07-23T22:17:37.536Z,24.12
2018-07-23T22:19:43.584Z,24.09
2018-07-23T22:21:48.684Z,24.06
2018-07-23T22:23:54.183Z,24.03
2018-07-23T22:25:58.989Z,24.01
2018-07-23T22:28:03.833Z,23.98
2018-07-23T22:30:08.789Z,23.93
2018-07-23T22:32:13.691Z,23.84
2018-07-23T22:34:18.600Z,23.88
2018-07-23T22:36:23.432Z,23.86
2018-07-23T22:38:28.205Z,23.80
2018-07-23T22:40:33.303Z,23.78
2018-07-23T22:42:39.004Z,23.74
2018-07-23T22:44:47.774Z,23.62
2018-07-23T22:46:52.677Z,23.72
2018-07-23T22:48:57.464Z,23.31
2018-07-23T22:51:02.278Z,23.70
2018-07-23T22:53:07.152Z,23.68
2018-07-23T22:55:11.839Z,23.66
2018-07-23T22:57:16.449Z,23.66
2018-07-23T22:59:21.273Z,23.65
2018-07-23T23:01:25.954Z,23.64
2018-07-23T23:03:30.701Z,23.63
2018-07-23T23:05:35.380Z,23.60
2018-07-23T23:07:40.062Z,23.57
2018-07-23T23:09:45.584Z,23.56
2018-07-23T23:11:50.218Z,23.56
2018-07-23T23:13:54.901Z,23.52
2018-07-23T23:15:59.739Z,23.48
2018-07-23T23:18:04.538Z,23.47
2018-07-23T23:20:09.993Z,23.42
2018-07-23T23:22:14.778Z,23.39
2018-07-23T23:24:19.443Z,23.36
2018-07-23T23:26:24.104Z,23.33
2018-07-23T23:28:28.811Z,23.30
2018-07-23T23:30:33.477Z,23.27
2018-07-23T23:32:38.144Z,23.22
2018-07-23T23:34:42.781Z,23.18
2018-07-23T23:36:47.516Z,23.14
2018-07-23T23:38:52.194Z,23.13
2018-07-23T23:40:56.869Z,23.11
2018-07-23T23:43:01.649Z,23.09
2018-07-23T23:45:06.631Z,23.05
2018-07-23T23:47:11.446Z,23.00
2018-07-23T23:49:16.100Z,22.91
2018-07-23T23:51:21.654Z,22.95
2018-07-23T23:53:26.406Z,22.92
2018-07-23T23:55:31.171Z,22.92
2018-07-23T23:57:35.898Z,22.91
2018-07-23T23:59:40.592Z,22.88
